createdAt,value
2022-12-08T00:01:24.125Z,73723.19
2022-12-08T00:03:52.041Z,73722.84
2022-12-08T00:06:49.499Z,73722.72
2022-12-08T00:09:41.087Z,73722.72
2022-12-08T00:12:12.817Z,73722.44
2022-12-08T00:14:42.553Z,73721.97
2022-12-08T00:17:11.564Z,73722.16
2022-12-08T00:19:39.963Z,73722.03
2022-12-08T00:22:09.903Z,73721.16
2022-12-08T00:24:39.873Z,73719.97
2022-12-08T00:27:09.253Z,73718.59
2022-12-08T00:29:37.227Z,73716.19
2022-12-08T00:32:05.688Z,73714.13
2022-12-08T00:34:33.553Z,73712.50
2022-12-08T00:37:00.802Z,73711.22
2022-12-08T00:39:27.919Z,73710.09
2022-12-08T00:42:13.048Z,73708.50
2022-12-08T00:44:41.341Z,73706.78
2022-12-08T00:47:08.428Z,73705.47
2022-12-08T00:49:35.477Z,73704.03
2022-12-08T00:52:02.584Z,73702.53
2022-12-08T00:54:29.725Z,73700.72
2022-12-08T00:56:56.862Z,73699.69
2022-12-08T00:59:23.783Z,73698.50
2022-12-08T01:01:51.164Z,73697.19
2022-12-08T01:04:19.655Z,73696.00
2022-12-08T01:06:47.984Z,73695.47
2022-12-08T01:09:16.398Z,73695.06
2022-12-08T01:11:44.788Z,73694.16
2022-12-08T01:14:12.652Z,73693.72
2022-12-08T01:16:41.817Z,73693.09
2022-12-08T01:19:11.063Z,73692.81
2022-12-08T01:21:38.239Z,73692.16
2022-12-08T01:24:05.773Z,73691.44
2022-12-08T01:26:32.977Z,73689.81
2022-12-08T01:29:00.152Z,73688.38
2022-12-08T01:31:27.495Z,73687.53
2022-12-08T01:33:54.613Z,73686.53
2022-12-08T01:36:27.717Z,73685.66
2022-12-08T01:38:57.137Z,73684.84
2022-12-08T01:41:27.262Z,73683.69
2022-12-08T01:44:08.522Z,73681.88
2022-12-08T01:46:38.874Z,73680.09
2022-12-08T01:49:11.852Z,73678.47
2022-12-08T01:51:44.104Z,73676.69
2022-12-08T01:54:13.522Z,73675.22
2022-12-08T01:56:50.823Z,73674.63
2022-12-08T01:59:19.376Z,73674.22
2022-12-08T02:01:51.469Z,73673.34
2022-12-08T02:04:18.654Z,73672.59
2022-12-08T02:06:47.766Z,73671.28
2022-12-08T02:09:15.446Z,73670.69
2022-12-08T02:11:42.433Z,73670.38
2022-12-08T02:14:11.986Z,73670.38
2022-12-08T02:16:43.456Z,73670.69
2022-12-08T02:19:41.353Z,73670.81
2022-12-08T02:22:36.716Z,73670.47
2022-12-08T02:25:16.375Z,73669.88
2022-12-08T02:28:03.718Z,73669.63
2022-12-08T02:31:05.856Z,73668.44
2022-12-08T02:34:17.700Z,73667.09
2022-12-08T02:36:50.357Z,73666.09
2022-12-08T02:39:52.949Z,73664.66
2022-12-08T02:42:38.366Z,73663.22
2022-12-08T02:45:30.696Z,73661.84
2022-12-08T02:47:59.282Z,73659.63
2022-12-08T02:50:27.468Z,73657.72
2022-12-08T02:52:54.879Z,73655.94
2022-12-08T02:55:24.757Z,73654.16
2022-12-08T02:58:03.977Z,73653.22
2022-12-08T03:00:41.528Z,73651.47
2022-12-08T03:03:23.817Z,73649.84
2022-12-08T03:06:15.713Z,73648.88
2022-12-08T03:08:50.082Z,73647.06
2022-12-08T03:11:29.218Z,73645.31
2022-12-08T03:14:00.610Z,73643.75
2022-12-08T03:16:30.114Z,73642.34
2022-12-08T03:19:13.841Z,73640.59
2022-12-08T03:21:41.544Z,73639.03
2022-12-08T03:24:10.990Z,73637.56
2022-12-08T03:26:53.396Z,73635.81
2022-12-08T03:29:21.024Z,73634.38
2022-12-08T03:31:56.134Z,73633.06
2022-12-08T03:34:26.450Z,73632.09
2022-12-08T03:36:53.953Z,73630.63
2022-12-08T03:39:21.106Z,73628.53
2022-12-08T03:41:48.135Z,73626.72
2022-12-08T03:44:15.301Z,73624.22
2022-12-08T03:46:42.264Z,73621.59
2022-12-08T03:49:09.467Z,73618.06
2022-12-08T03:51:36.664Z,73615.50
2022-12-08T03:54:04.699Z,73612.31
2022-12-08T03:56:35.216Z,73609.41
2022-12-08T03:59:03.517Z,73606.47
2022-12-08T04:01:30.848Z,73603.91
2022-12-08T04:03:58.039Z,73601.00
2022-12-08T04:06:26.546Z,73598.09
2022-12-08T04:08:53.682Z,73595.19
2022-12-08T04:11:21.548Z,73592.84
2022-12-08T04:13:48.932Z,73591.00
2022-12-08T04:16:25.094Z,73588.59
2022-12-08T04:18:52.593Z,73586.59
2022-12-08T04:21:20.096Z,73584.53
2022-12-08T04:23:47.645Z,73582.84
2022-12-08T04:26:15.289Z,73580.97
2022-12-08T04:28:42.365Z,73578.78
2022-12-08T04:31:09.351Z,73576.91
2022-12-08T04:33:36.643Z,73575.34
2022-12-08T04:36:05.084Z,73573.88
2022-12-08T04:38:32.530Z,73572.88
2022-12-08T04:41:00.944Z,73571.72
2022-12-08T04:43:28.373Z,73571.00
2022-12-08T04:45:55.462Z,73570.25
2022-12-08T04:48:22.476Z,73569.84
2022-12-08T04:50:49.660Z,73569.09
2022-12-08T04:53:16.670Z,73568.53
2022-12-08T04:55:45.247Z,73567.78
2022-12-08T04:58:14.340Z,73567.19
2022-12-08T05:00:41.903Z,73567.22
2022-12-08T05:03:09.504Z,73566.78
2022-12-08T05:05:36.737Z,73566.94
2022-12-08T05:08:04.404Z,73566.78
2022-12-08T05:10:32.381Z,73566.66
2022-12-08T05:13:00.335Z,73566.19
2022-12-08T05:15:27.982Z,73565.91
2022-12-08T05:17:55.541Z,73565.72
2022-12-08T05:20:22.788Z,73566.19
2022-12-08T05:22:49.854Z,73566.66
2022-12-08T05:25:17.108Z,73567.19
2022-12-08T05:27:44.303Z,73568.53
2022-12-08T05:30:11.750Z,73569.56
2022-12-08T05:32:38.925Z,73569.97
2022-12-08T05:35:06.543Z,73570.22
2022-12-08T05:37:33.685Z,73569.75
2022-12-08T05:40:01.017Z,73569.19
2022-12-08T05:42:28.038Z,73568.31
2022-12-08T05:44:55.026Z,73567.28
2022-12-08T05:47:22.001Z,73566.47
2022-12-08T05:49:49.117Z,73565.78
2022-12-08T05:52:17.187Z,73565.03
2022-12-08T05:54:44.598Z,73564.75
2022-12-08T05:57:11.773Z,73564.16
2022-12-08T05:59:39.743Z,73563.69
2022-12-08T06:02:06.829Z,73563.84
2022-12-08T06:04:33.917Z,73563.91
2022-12-08T06:07:00.960Z,73563.63
2022-12-08T06:09:27.973Z,73563.31
2022-12-08T06:11:55.093Z,73563.78
2022-12-08T06:14:22.155Z,73564.34
2022-12-08T06:16:49.203Z,73565.19
2022-12-08T06:19:16.546Z,73566.03
2022-12-08T06:21:43.638Z,73567.19
2022-12-08T06:24:10.789Z,73568.69
2022-12-08T06:26:40.359Z,73569.97
2022-12-08T06:29:07.897Z,73571.72
2022-12-08T06:31:34.988Z,73574.09
2022-12-08T06:34:02.109Z,73576.88
2022-12-08T06:36:30.139Z,73579.34
2022-12-08T06:38:57.497Z,73582.53
2022-12-08T06:41:25.997Z,73586.53
2022-12-08T06:43:56.253Z,73591.22
2022-12-08T06:46:23.371Z,73596.34
2022-12-08T06:48:50.854Z,73601.88
2022-12-08T06:51:20.775Z,73607.53
2022-12-08T06:53:48.560Z,73613.63
2022-12-08T06:56:17.068Z,73620.16
2022-12-08T06:58:48.935Z,73626.97
2022-12-08T07:01:19.767Z,73634.34
2022-12-08T07:03:47.893Z,73642.63
2022-12-08T07:06:25.200Z,73651.25
2022-12-08T07:08:52.633Z,73659.47
2022-12-08T07:11:21.904Z,73668.31
2022-12-08T07:13:50.701Z,73677.16
2022-12-08T07:16:17.892Z,73686.63
2022-12-08T07:18:44.891Z,73695.97
2022-12-08T07:21:15.101Z,73705.13
2022-12-08T07:23:43.320Z,73713.88
2022-12-08T07:26:12.512Z,73722.31
2022-12-08T07:28:41.322Z,73731.47
2022-12-08T07:31:16.379Z,73740.69
2022-12-08T07:33:43.550Z,73749.72
2022-12-08T07:36:10.687Z,73758.84
2022-12-08T07:38:37.733Z,73768.59
2022-12-08T07:41:04.916Z,73778.63
2022-12-08T07:43:32.203Z,73789.16
2022-12-08T07:46:00.150Z,73799.31
2022-12-08T07:48:27.138Z,73809.41
2022-12-08T07:51:04.289Z,73818.66
2022-12-08T07:53:32.265Z,73828.69
2022-12-08T07:55:59.552Z,73838.69
2022-12-08T07:58:27.694Z,73849.03
2022-12-08T08:00:54.942Z,73860.16
2022-12-08T08:03:22.532Z,73871.25
2022-12-08T08:05:50.216Z,73881.63
2022-12-08T08:08:18.275Z,73890.94
2022-12-08T08:10:47.066Z,73899.91
2022-12-08T08:13:14.253Z,73909.28
2022-12-08T08:15:41.428Z,73919.00
2022-12-08T08:18:08.551Z,73928.03
2022-12-08T08:20:35.639Z,73936.63
2022-12-08T08:23:02.658Z,73945.06
2022-12-08T08:25:29.696Z,73953.22
2022-12-08T08:27:56.819Z,73962.38
2022-12-08T08:30:24.622Z,73971.28
2022-12-08T08:32:52.450Z,73979.41
2022-12-08T08:35:19.570Z,73987.81
2022-12-08T08:37:49.419Z,73995.41
2022-12-08T08:40:18.468Z,74003.75
2022-12-08T08:42:45.508Z,74011.63
2022-12-08T08:45:12.615Z,74019.22
2022-12-08T08:47:39.551Z,74027.03
2022-12-08T08:50:07.864Z,74035.94
2022-12-08T08:52:35.149Z,74044.53
2022-12-08T08:55:04.165Z,74054.19
2022-12-08T08:57:31.872Z,74062.94
2022-12-08T08:59:59.999Z,74071.88
2022-12-08T09:02:27.012Z,74081.25
2022-12-08T09:04:54.250Z,74091.03
2022-12-08T09:07:21.373Z,74100.50
2022-12-08T09:09:49.116Z,74109.69
2022-12-08T09:12:16.205Z,74118.09
2022-12-08T09:14:43.345Z,74127.19
2022-12-08T09:17:10.451Z,74135.78
2022-12-08T09:19:37.927Z,74144.81
2022-12-08T09:22:06.046Z,74153.44
2022-12-08T09:24:33.306Z,74161.59
2022-12-08T09:27:00.367Z,74168.50
2022-12-08T09:29:32.539Z,74175.03
2022-12-08T09:32:03.282Z,74182.06
2022-12-08T09:34:33.565Z,74188.59
2022-12-08T09:37:00.598Z,74194.19
2022-12-08T09:39:27.749Z,74199.88
2022-12-08T09:42:04.192Z,74206.88
2022-12-08T09:44:55.523Z,74215.47
2022-12-08T09:47:32.252Z,74224.56
2022-12-08T09:50:15.669Z,74233.63
2022-12-08T09:52:56.796Z,74243.25
2022-12-08T09:55:45.996Z,74253.25
2022-12-08T09:58:21.743Z,74263.00
2022-12-08T10:00:48.931Z,74272.50
2022-12-08T10:03:17.053Z,74282.09
2022-12-08T10:05:52.205Z,74291.59
2022-12-08T10:08:29.560Z,74301.97
2022-12-08T10:11:05.525Z,74310.72
2022-12-08T10:13:58.166Z,74319.19
2022-12-08T10:16:33.957Z,74328.25
2022-12-08T10:19:18.896Z,74336.91
2022-12-08T10:21:45.891Z,74345.38
2022-12-08T10:24:37.531Z,74353.44
2022-12-08T10:27:11.853Z,74360.44
2022-12-08T10:29:40.603Z,74366.28
2022-12-08T10:32:19.260Z,74371.78
2022-12-08T10:35:07.896Z,74376.28
2022-12-08T10:37:35.160Z,74380.91
2022-12-08T10:40:17.505Z,74385.63
2022-12-08T10:42:55.483Z,74390.34
2022-12-08T10:45:27.793Z,74394.75
2022-12-08T10:48:00.268Z,74399.00
2022-12-08T10:50:42.852Z,74403.22
2022-12-08T10:53:34.101Z,74408.47
2022-12-08T10:56:04.355Z,74414.16
2022-12-08T10:58:36.479Z,74420.41
2022-12-08T11:01:14.060Z,74426.38
2022-12-08T11:03:51.357Z,74433.16
2022-12-08T11:06:20.713Z,74439.09
2022-12-08T11:08:59.412Z,74445.69
2022-12-08T11:11:50.852Z,74451.88
2022-12-08T11:14:30.237Z,74458.63
2022-12-08T11:17:07.597Z,74465.63
2022-12-08T11:19:40.077Z,74471.81
2022-12-08T11:22:45.783Z,74478.06
2022-12-08T11:25:12.791Z,74484.97
2022-12-08T11:27:43.687Z,74491.34
2022-12-08T11:30:25.623Z,74497.47
2022-12-08T11:32:56.805Z,74502.94
2022-12-08T11:35:40.728Z,74507.47
2022-12-08T11:38:27.684Z,74511.44
2022-12-08T11:41:00.497Z,74514.97
2022-12-08T11:44:13.747Z,74518.53
2022-12-08T11:46:49.038Z,74521.44
2022-12-08T11:49:16.101Z,74523.50
2022-12-08T11:51:48.842Z,74525.22
2022-12-08T11:54:33.014Z,74527.75
2022-12-08T11:57:02.775Z,74530.69
2022-12-08T11:59:33.298Z,74535.25
2022-12-08T12:02:03.074Z,74539.47
2022-12-08T12:04:36.148Z,74544.38
2022-12-08T12:07:12.713Z,74548.72
2022-12-08T12:10:07.277Z,74554.31
2022-12-08T12:12:44.400Z,74557.03
2022-12-08T12:15:52.676Z,74560.13
2022-12-08T12:18:46.701Z,74563.94
2022-12-08T12:21:19.667Z,74569.25
2022-12-08T12:23:55.743Z,74573.03
2022-12-08T12:26:29.810Z,74576.72
2022-12-08T12:29:05.800Z,74579.25
2022-12-08T12:31:37.103Z,74580.81
2022-12-08T12:34:22.466Z,74583.88
2022-12-08T12:37:12.677Z,74588.38
2022-12-08T12:40:06.102Z,74592.75
2022-12-08T12:42:39.248Z,74597.44
2022-12-08T12:45:18.435Z,74602.00
2022-12-08T12:48:13.259Z,74606.16
2022-12-08T12:50:43.659Z,74609.78
2022-12-08T12:53:16.941Z,74613.25
2022-12-08T12:56:01.628Z,74615.69
2022-12-08T12:58:28.662Z,74617.50
2022-12-08T13:01:11.237Z,74618.38
2022-12-08T13:03:39.333Z,74619.66
2022-12-08T13:06:10.022Z,74620.72
2022-12-08T13:08:51.318Z,74622.47
2022-12-08T13:11:18.553Z,74623.63
2022-12-08T13:14:05.015Z,74624.66
2022-12-08T13:16:35.726Z,74625.50
2022-12-08T13:19:11.948Z,74625.50
2022-12-08T13:21:40.032Z,74625.56
2022-12-08T13:24:28.363Z,74625.09
2022-12-08T13:27:04.585Z,74624.34
2022-12-08T13:29:35.893Z,74623.25
2022-12-08T13:32:04.833Z,74622.94
2022-12-08T13:34:52.024Z,74622.34
2022-12-08T13:37:27.035Z,74622.34
2022-12-08T13:42:50.755Z,74620.44
2022-12-08T13:45:52.963Z,74618.97
2022-12-08T13:49:09.672Z,74617.75
2022-12-08T13:53:22.475Z,74615.44
2022-12-08T13:55:58.710Z,74613.03
2022-12-08T13:57:36.315Z,74610.81
2022-12-08T14:00:17.141Z,74609.34
2022-12-08T14:02:48.571Z,74608.47
2022-12-08T14:05:20.378Z,74607.16
2022-12-08T14:07:54.376Z,74606.34
2022-12-08T14:10:28.479Z,74604.59
2022-12-08T14:13:00.091Z,74602.44
2022-12-08T14:15:31.271Z,74600.13
2022-12-08T14:18:01.545Z,74597.22
2022-12-08T14:20:51.989Z,74593.19
2022-12-08T14:23:21.391Z,74588.63
2022-12-08T14:25:48.812Z,74582.50
2022-12-08T14:28:17.680Z,74574.03
2022-12-08T14:30:44.973Z,74561.22
2022-12-08T14:33:15.634Z,74547.66
2022-12-08T14:35:42.768Z,74533.25
2022-12-08T14:38:15.426Z,74518.75
2022-12-08T14:40:48.530Z,74503.78
2022-12-08T14:43:18.997Z,74489.00
2022-12-08T14:45:46.062Z,74474.84
2022-12-08T14:48:28.173Z,74461.00
2022-12-08T14:51:04.642Z,74447.94
2022-12-08T14:53:53.694Z,74434.94
2022-12-08T14:56:33.671Z,74421.94
2022-12-08T14:59:12.287Z,74409.53
2022-12-08T15:01:40.599Z,74396.91
2022-12-08T15:04:19.156Z,74384.94
2022-12-08T15:07:07.159Z,74372.94
2022-12-08T15:09:41.150Z,74361.34
2022-12-08T15:12:13.824Z,74350.13
2022-12-08T15:14:59.336Z,74338.88
2022-12-08T15:17:31.799Z,74327.31
2022-12-08T15:20:01.106Z,74316.47
2022-12-08T15:22:30.889Z,74305.22
2022-12-08T15:24:58.646Z,74294.53
2022-12-08T15:27:26.414Z,74283.84
2022-12-08T15:29:53.908Z,74273.16
2022-12-08T15:32:23.524Z,74263.22
2022-12-08T15:34:50.782Z,74253.41
2022-12-08T15:37:26.658Z,74243.63
2022-12-08T15:39:54.081Z,74235.03
2022-12-08T15:42:21.109Z,74226.28
2022-12-08T15:44:48.330Z,74217.66
2022-12-08T15:47:19.337Z,74208.69
2022-12-08T15:49:47.621Z,74199.94
2022-12-08T15:52:16.992Z,74191.34
2022-12-08T15:54:44.257Z,74183.00
2022-12-08T15:58:24.878Z,74175.13
2022-12-08T16:00:51.149Z,74167.91
2022-12-08T16:04:02.737Z,74160.28
2022-12-08T16:07:26.844Z,74152.69
2022-12-08T16:09:13.168Z,74144.94
2022-12-08T16:12:08.801Z,74137.66
2022-12-08T16:17:25.849Z,74123.59
2022-12-08T16:19:53.100Z,74117.06
2022-12-08T16:25:20.213Z,74103.66
2022-12-08T16:28:01.407Z,74097.13
2022-12-08T16:30:30.566Z,74090.72
2022-12-08T16:32:57.620Z,74084.59
2022-12-08T16:35:24.722Z,74078.66
2022-12-08T16:37:51.729Z,74072.00
2022-12-08T16:40:19.011Z,74065.88
2022-12-08T16:42:47.905Z,74060.03
2022-12-08T16:45:17.915Z,74054.50
2022-12-08T16:47:47.712Z,74049.25
2022-12-08T16:50:21.396Z,74044.66
2022-12-08T16:52:49.658Z,74039.78
2022-12-08T16:55:19.432Z,74035.25
2022-12-08T16:57:47.633Z,74030.41
2022-12-08T17:00:17.985Z,74025.72
2022-12-08T17:02:45.335Z,74021.16
2022-12-08T17:05:15.180Z,74017.09
2022-12-08T17:07:44.337Z,74012.69
2022-12-08T17:10:16.013Z,74008.75
2022-12-08T17:12:44.152Z,74005.25
2022-12-08T17:15:15.423Z,74002.50
2022-12-08T17:17:42.838Z,73999.28
2022-12-08T17:20:14.066Z,73996.38
2022-12-08T17:22:41.603Z,73993.28
2022-12-08T17:25:09.292Z,73990.38
2022-12-08T17:27:37.358Z,73987.88
2022-12-08T17:30:06.370Z,73985.81
2022-12-08T17:32:33.728Z,73983.34
2022-12-08T17:35:00.865Z,73980.38
2022-12-08T17:37:27.844Z,73977.28
2022-12-08T17:39:54.925Z,73974.06
2022-12-08T17:42:26.069Z,73971.06
2022-12-08T17:44:54.071Z,73967.94
2022-12-08T17:47:21.247Z,73965.03
2022-12-08T17:49:48.946Z,73961.75
2022-12-08T17:52:16.104Z,73958.56
2022-12-08T17:54:43.565Z,73956.41
2022-12-08T17:57:11.024Z,73953.88
2022-12-08T17:59:38.151Z,73951.88
2022-12-08T18:02:05.595Z,73949.88
2022-12-08T18:04:32.798Z,73948.31
2022-12-08T18:07:01.611Z,73946.75
2022-12-08T18:09:31.017Z,73945.94
2022-12-08T18:11:58.585Z,73944.75
2022-12-08T18:14:25.767Z,73943.31
2022-12-08T18:16:52.906Z,73941.84
2022-12-08T18:19:20.030Z,73940.22
2022-12-08T18:21:47.228Z,73939.19
2022-12-08T18:24:22.303Z,73938.03
2022-12-08T18:26:52.481Z,73936.50
2022-12-08T18:29:21.797Z,73934.88
2022-12-08T18:31:49.345Z,73933.47
2022-12-08T18:34:16.592Z,73931.38
2022-12-08T18:36:43.585Z,73929.63
2022-12-08T18:39:29.613Z,73927.38
2022-12-08T18:41:57.742Z,73925.63
2022-12-08T18:44:25.454Z,73924.44
2022-12-08T18:46:52.403Z,73923.59
2022-12-08T18:49:20.160Z,73923.16
2022-12-08T18:51:47.694Z,73922.31
2022-12-08T18:54:14.916Z,73921.72
2022-12-08T18:56:41.884Z,73921.00
2022-12-08T18:59:12.012Z,73919.38
2022-12-08T19:01:40.098Z,73918.06
2022-12-08T19:04:27.760Z,73916.75
2022-12-08T19:06:56.392Z,73915.47
2022-12-08T19:09:24.647Z,73913.59
2022-12-08T19:11:51.913Z,73910.88
2022-12-08T19:14:22.714Z,73908.72
2022-12-08T19:16:54.660Z,73906.09
2022-12-08T19:19:21.788Z,73903.47
2022-12-08T19:21:49.063Z,73901.16
2022-12-08T19:24:16.461Z,73898.81
2022-12-08T19:26:43.912Z,73897.25
2022-12-08T19:29:12.098Z,73895.00
2022-12-08T19:31:39.607Z,73893.69
2022-12-08T19:34:07.073Z,73892.06
2022-12-08T19:36:35.727Z,73891.22
2022-12-08T19:39:23.035Z,73890.28
2022-12-08T19:42:09.461Z,73888.84
2022-12-08T19:47:58.342Z,73885.59
2022-12-08T19:50:38.554Z,73884.31
2022-12-08T19:53:13.268Z,73882.66
2022-12-08T19:55:42.230Z,73881.56
2022-12-08T19:58:10.233Z,73879.25
2022-12-08T20:00:40.090Z,73877.66
2022-12-08T20:03:07.268Z,73876.09
2022-12-08T20:05:36.836Z,73875.25
2022-12-08T20:08:04.046Z,73874.28
2022-12-08T20:10:36.074Z,73873.59
2022-12-08T20:13:22.309Z,73872.44
2022-12-08T20:15:49.641Z,73870.81
2022-12-08T20:18:17.906Z,73869.25
2022-12-08T20:20:46.335Z,73867.97
2022-12-08T20:23:14.517Z,73865.75
2022-12-08T20:25:43.077Z,73864.00
2022-12-08T20:28:10.636Z,73861.19
2022-12-08T20:30:42.660Z,73859.06
2022-12-08T20:33:12.882Z,73856.53
2022-12-08T20:35:40.405Z,73854.53
2022-12-08T20:38:07.584Z,73852.09
2022-12-08T20:40:34.918Z,73849.81
2022-12-08T20:43:02.111Z,73847.47
2022-12-08T20:45:29.318Z,73845.56
2022-12-08T20:47:56.710Z,73844.00
2022-12-08T20:50:24.467Z,73842.38
2022-12-08T20:52:52.614Z,73841.22
2022-12-08T20:55:20.052Z,73840.09
2022-12-08T20:57:47.154Z,73838.59
2022-12-08T21:00:17.724Z,73837.44
2022-12-08T21:02:49.753Z,73836.59
2022-12-08T21:05:17.379Z,73835.41
2022-12-08T21:07:44.653Z,73834.19
2022-12-08T21:10:12.147Z,73833.66
2022-12-08T21:12:40.258Z,73832.31
2022-12-08T21:15:08.198Z,73831.38
2022-12-08T21:17:37.171Z,73830.28
2022-12-08T21:20:05.134Z,73828.63
2022-12-08T21:22:32.801Z,73827.06
2022-12-08T21:24:59.959Z,73824.97
2022-12-08T21:27:27.541Z,73823.09
2022-12-08T21:29:54.698Z,73821.19
2022-12-08T21:32:26.997Z,73818.69
2022-12-08T21:34:57.692Z,73816.69
2022-12-08T21:37:25.229Z,73814.34
2022-12-08T21:39:52.568Z,73812.31
2022-12-08T21:42:38.460Z,73810.09
2022-12-08T21:45:06.459Z,73807.91
2022-12-08T21:47:34.313Z,73805.97
2022-12-08T21:50:01.874Z,73804.19
2022-12-08T21:52:29.112Z,73802.56
2022-12-08T21:54:56.158Z,73801.44
2022-12-08T21:57:23.372Z,73800.00
2022-12-08T21:59:51.223Z,73798.81
2022-12-08T22:02:22.383Z,73798.28
2022-12-08T22:04:52.889Z,73797.72
2022-12-08T22:07:21.642Z,73797.25
2022-12-08T22:09:49.250Z,73796.50
2022-12-08T22:12:16.993Z,73796.03
2022-12-08T22:14:44.177Z,73795.47
2022-12-08T22:17:11.368Z,73795.28
2022-12-08T22:19:38.859Z,73794.97
2022-12-08T22:22:05.958Z,73794.88
2022-12-08T22:24:33.234Z,73795.59
2022-12-08T22:27:00.413Z,73796.78
2022-12-08T22:29:28.533Z,73798.25
2022-12-08T22:31:56.064Z,73799.84
2022-12-08T22:34:23.418Z,73801.97
2022-12-08T22:36:50.853Z,73804.47
2022-12-08T22:39:18.419Z,73807.41
2022-12-08T22:41:45.858Z,73810.06
2022-12-08T22:44:16.414Z,73812.00
2022-12-08T22:46:43.672Z,73814.19
2022-12-08T22:49:10.860Z,73816.63
2022-12-08T22:51:39.477Z,73818.53
2022-12-08T22:54:06.757Z,73820.84
2022-12-08T22:56:33.695Z,73822.44
2022-12-08T22:59:00.984Z,73824.22
2022-12-08T23:01:31.259Z,73825.66
2022-12-08T23:03:59.655Z,73826.84
2022-12-08T23:06:28.028Z,73827.50
2022-12-08T23:08:56.031Z,73828.19
2022-12-08T23:11:25.769Z,73829.66
2022-12-08T23:13:53.264Z,73831.22
2022-12-08T23:16:23.509Z,73833.03
2022-12-08T23:18:51.584Z,73834.31
2022-12-08T23:21:20.375Z,73835.47
2022-12-08T23:23:48.167Z,73836.78
2022-12-08T23:26:19.897Z,73837.94
2022-12-08T23:28:47.378Z,73838.47
2022-12-08T23:31:15.354Z,73839.06
2022-12-08T23:33:42.710Z,73840.19
2022-12-08T23:36:11.468Z,73841.34
2022-12-08T23:38:38.578Z,73842.50
2022-12-08T23:41:08.177Z,73843.69
2022-12-08T23:43:35.624Z,73845.13
2022-12-08T23:46:03.578Z,73845.84
2022-12-08T23:48:35.022Z,73846.69
2022-12-08T23:51:02.308Z,73847.19
2022-12-08T23:53:30.712Z,73847.44
2022-12-08T23:56:02.292Z,73848.63
2022-12-08T23:58:33.419Z,73849.50
